sensor_id;sensor_type;location;lat;lon;timestamp;pressure;altitude;pressure_sealevel;temperature;humidity
65534;BME280;53640;55.838;37.184;2022-07-29T00:02:22;99210.94;;;15.48;58.12
65534;BME280;53640;55.838;37.184;2022-07-29T00:04:48;99204.50;;;15.32;58.07
65534;BME280;53640;55.838;37.184;2022-07-29T00:07:14;99195.94;;;15.24;58.25
65534;BME280;53640;55.838;37.184;2022-07-29T00:09:40;99224.22;;;15.40;58.35
65534;BME280;53640;55.838;37.184;2022-07-29T00:12:07;99181.81;;;15.10;58.37
65534;BME280;53640;55.838;37.184;2022-07-29T00:14:33;99213.66;;;15.26;58.33
65534;BME280;53640;55.838;37.184;2022-07-29T00:16:59;99189.09;;;15.04;58.49
65534;BME280;53640;55.838;37.184;2022-07-29T00:19:26;99222.59;;;15.22;58.73
65534;BME280;53640;55.838;37.184;2022-07-29T00:21:52;99190.03;;;14.93;58.50
65534;BME280;53640;55.838;37.184;2022-07-29T00:24:18;99222.06;;;15.03;58.61
65534;BME280;53640;55.838;37.184;2022-07-29T00:26:46;99158.44;;;14.58;59.08
65534;BME280;53640;55.838;37.184;2022-07-29T00:29:12;99231.56;;;15.00;58.86
65534;BME280;53640;55.838;37.184;2022-07-29T00:31:38;99242.56;;;15.05;58.98
65534;BME280;53640;55.838;37.184;2022-07-29T00:34:05;99198.72;;;14.73;59.14
65534;BME280;53640;55.838;37.184;2022-07-29T00:36:51;99209.16;;;14.76;59.11
65534;BME280;53640;55.838;37.184;2022-07-29T00:39:17;99241.31;;;14.96;59.21
65534;BME280;53640;55.838;37.184;2022-07-29T00:41:43;99207.72;;;14.74;58.99
65534;BME280;53640;55.838;37.184;2022-07-29T00:44:09;99239.34;;;14.92;59.27
65534;BME280;53640;55.838;37.184;2022-07-29T00:46:36;99239.28;;;14.86;59.12
65534;BME280;53640;55.838;37.184;2022-07-29T00:49:02;99189.16;;;14.54;59.14
65534;BME280;53640;55.838;37.184;2022-07-29T00:51:30;99228.22;;;14.76;58.93
65534;BME280;53640;55.838;37.184;2022-07-29T00:53:56;99248.72;;;14.79;59.22
65534;BME280;53640;55.838;37.184;2022-07-29T00:56:22;99239.59;;;14.73;59.32
65534;BME280;53640;55.838;37.184;2022-07-29T00:58:50;99254.88;;;14.74;59.28
65534;BME280;53640;55.838;37.184;2022-07-29T01:01:17;99241.34;;;14.62;59.12
65534;BME280;53640;55.838;37.184;2022-07-29T01:03:43;99213.25;;;14.45;59.52
65534;BME280;53640;55.838;37.184;2022-07-29T01:06:10;99253.66;;;14.65;59.39
65534;BME280;53640;55.838;37.184;2022-07-29T01:08:36;99215.38;;;14.43;59.45
65534;BME280;53640;55.838;37.184;2022-07-29T01:11:03;99215.88;;;14.40;59.50
65534;BME280;53640;55.838;37.184;2022-07-29T01:13:29;99229.41;;;14.52;59.56
65534;BME280;53640;55.838;37.184;2022-07-29T01:16:02;99186.00;;;14.11;59.62
65534;BME280;53640;55.838;37.184;2022-07-29T01:18:33;99243.78;;;14.47;59.42
65534;BME280;53640;55.838;37.184;2022-07-29T01:21:21;99265.16;;;14.55;59.63
65534;BME280;53640;55.838;37.184;2022-07-29T01:29:32;99257.97;;;14.49;59.15
65534;BME280;53640;55.838;37.184;2022-07-29T01:32:03;99262.00;;;14.47;59.50
65534;BME280;53640;55.838;37.184;2022-07-29T01:37:29;99237.72;;;14.28;59.32
65534;BME280;53640;55.838;37.184;2022-07-29T01:39:59;99250.72;;;14.38;59.32
65534;BME280;53640;55.838;37.184;2022-07-29T01:42:35;99235.41;;;14.20;59.07
65534;BME280;53640;55.838;37.184;2022-07-29T01:45:14;99173.88;;;13.74;59.43
65534;BME280;53640;55.838;37.184;2022-07-29T01:47:58;99254.66;;;14.30;59.13
65534;BME280;53640;55.838;37.184;2022-07-29T01:50:50;99250.78;;;14.26;59.31
65534;BME280;53640;55.838;37.184;2022-07-29T01:53:21;99220.09;;;14.02;58.94
65534;BME280;53640;55.838;37.184;2022-07-29T01:55:52;99226.63;;;14.01;59.27
65534;BME280;53640;55.838;37.184;2022-07-29T01:58:21;99270.88;;;14.25;59.13
65534;BME280;53640;55.838;37.184;2022-07-29T02:00:49;99240.91;;;14.08;59.12
65534;BME280;53640;55.838;37.184;2022-07-29T02:03:17;99269.00;;;14.26;59.70
65534;BME280;53640;55.838;37.184;2022-07-29T02:05:46;99225.22;;;13.99;59.42
65534;BME280;53640;55.838;37.184;2022-07-29T02:08:15;99243.88;;;14.07;59.23
65534;BME280;53640;55.838;37.184;2022-07-29T02:10:43;99269.72;;;14.21;59.52
65534;BME280;53640;55.838;37.184;2022-07-29T02:13:11;99252.28;;;14.05;59.42
65534;BME280;53640;55.838;37.184;2022-07-29T02:15:41;99257.47;;;14.07;59.27
65534;BME280;53640;55.838;37.184;2022-07-29T02:18:20;99264.25;;;14.04;59.36
65534;BME280;53640;55.838;37.184;2022-07-29T02:20:50;99235.91;;;13.88;59.80
65534;BME280;53640;55.838;37.184;2022-07-29T02:23:20;99250.22;;;13.96;59.70
65534;BME280;53640;55.838;37.184;2022-07-29T02:25:53;99194.59;;;13.63;59.57
65534;BME280;53640;55.838;37.184;2022-07-29T02:28:22;99222.59;;;13.75;59.88
65534;BME280;53640;55.838;37.184;2022-07-29T02:30:51;99219.63;;;13.77;60.04
65534;BME280;53640;55.838;37.184;2022-07-29T02:33:18;99282.09;;;14.12;60.19
65534;BME280;53640;55.838;37.184;2022-07-29T02:35:47;99269.28;;;14.12;59.92
65534;BME280;53640;55.838;37.184;2022-07-29T02:38:18;99264.47;;;14.03;60.31
65534;BME280;53640;55.838;37.184;2022-07-29T02:41:08;99248.16;;;14.03;60.34
65534;BME280;53640;55.838;37.184;2022-07-29T02:43:35;99225.03;;;13.88;60.47
65534;BME280;53640;55.838;37.184;2022-07-29T02:46:05;99261.28;;;14.06;60.05
65534;BME280;53640;55.838;37.184;2022-07-29T02:49:02;99231.38;;;13.94;60.34
65534;BME280;53640;55.838;37.184;2022-07-29T02:51:54;99271.28;;;14.17;60.18
65534;BME280;53640;55.838;37.184;2022-07-29T02:54:33;99279.44;;;14.17;60.54
65534;BME280;53640;55.838;37.184;2022-07-29T02:57:09;99245.00;;;13.94;59.93
65534;BME280;53640;55.838;37.184;2022-07-29T02:59:39;99230.47;;;13.88;60.17
65534;BME280;53640;55.838;37.184;2022-07-29T03:02:08;99225.25;;;13.87;59.95
65534;BME280;53640;55.838;37.184;2022-07-29T03:04:37;99275.47;;;14.08;59.84
65534;BME280;53640;55.838;37.184;2022-07-29T03:07:06;99249.69;;;13.99;59.83
65534;BME280;53640;55.838;37.184;2022-07-29T03:09:33;99228.25;;;13.85;59.92
65534;BME280;53640;55.838;37.184;2022-07-29T03:12:00;99229.31;;;13.84;59.89
65534;BME280;53640;55.838;37.184;2022-07-29T03:14:30;99258.22;;;14.02;59.72
65534;BME280;53640;55.838;37.184;2022-07-29T03:16:57;99224.84;;;13.78;59.65
65534;BME280;53640;55.838;37.184;2022-07-29T03:19:25;99229.69;;;13.76;59.87
65534;BME280;53640;55.838;37.184;2022-07-29T03:21:52;99265.94;;;13.93;59.62
65534;BME280;53640;55.838;37.184;2022-07-29T03:24:32;99249.88;;;13.80;59.64
65534;BME280;53640;55.838;37.184;2022-07-29T03:26:59;99230.75;;;13.75;59.79
65534;BME280;53640;55.838;37.184;2022-07-29T03:29:27;99243.97;;;13.83;59.95
65534;BME280;53640;55.838;37.184;2022-07-29T03:31:53;99270.50;;;14.05;60.34
65534;BME280;53640;55.838;37.184;2022-07-29T03:34:20;99272.97;;;14.06;59.97
65534;BME280;53640;55.838;37.184;2022-07-29T03:36:47;99241.94;;;13.90;59.72
65534;BME280;53640;55.838;37.184;2022-07-29T03:39:17;99235.19;;;13.93;59.70
65534;BME280;53640;55.838;37.184;2022-07-29T03:41:46;99232.81;;;13.97;59.86
65534;BME280;53640;55.838;37.184;2022-07-29T03:44:15;99241.06;;;14.02;59.63
65534;BME280;53640;55.838;37.184;2022-07-29T03:46:43;99219.75;;;13.99;59.20
65534;BME280;53640;55.838;37.184;2022-07-29T03:49:11;99235.81;;;14.12;59.55
65534;BME280;53640;55.838;37.184;2022-07-29T03:51:38;99250.84;;;14.31;59.47
65534;BME280;53640;55.838;37.184;2022-07-29T03:54:05;99257.22;;;14.37;58.86
65534;BME280;53640;55.838;37.184;2022-07-29T03:56:34;99256.38;;;14.36;58.71
65534;BME280;53640;55.838;37.184;2022-07-29T03:59:01;99272.34;;;14.45;58.72
65534;BME280;53640;55.838;37.184;2022-07-29T04:01:29;99266.97;;;14.50;59.06
65534;BME280;53640;55.838;37.184;2022-07-29T04:03:56;99285.84;;;14.68;58.60
65534;BME280;53640;55.838;37.184;2022-07-29T04:06:22;99229.34;;;14.47;58.70
65534;BME280;53640;55.838;37.184;2022-07-29T04:08:48;99270.66;;;14.72;58.33
65534;BME280;53640;55.838;37.184;2022-07-29T04:11:15;99276.84;;;14.84;58.61
65534;BME280;53640;55.838;37.184;2022-07-29T04:13:41;99255.94;;;14.73;58.13
65534;BME280;53640;55.838;37.184;2022-07-29T04:16:08;99287.44;;;14.98;58.10
65534;BME280;53640;55.838;37.184;2022-07-29T04:18:34;99243.16;;;14.74;58.38
65534;BME280;53640;55.838;37.184;2022-07-29T04:21:01;99266.69;;;14.97;57.67
65534;BME280;53640;55.838;37.184;2022-07-29T04:23:29;99262.06;;;14.97;57.69
65534;BME280;53640;55.838;37.184;2022-07-29T04:25:59;99260.91;;;15.10;56.75
65534;BME280;53640;55.838;37.184;2022-07-29T04:28:26;99250.41;;;15.02;56.78
65534;BME280;53640;55.838;37.184;2022-07-29T04:30:53;99225.22;;;14.95;57.16
65534;BME280;53640;55.838;37.184;2022-07-29T04:33:19;99289.03;;;15.32;56.86
65534;BME280;53640;55.838;37.184;2022-07-29T04:35:45;99283.56;;;15.32;56.61
65534;BME280;53640;55.838;37.184;2022-07-29T04:38:12;99256.47;;;15.26;57.09
65534;BME280;53640;55.838;37.184;2022-07-29T04:40:38;99261.44;;;15.29;56.50
65534;BME280;53640;55.838;37.184;2022-07-29T04:43:04;99265.56;;;15.31;56.63
65534;BME280;53640;55.838;37.184;2022-07-29T04:45:30;99302.31;;;15.63;56.69
65534;BME280;53640;55.838;37.184;2022-07-29T04:47:57;99283.06;;;15.52;56.72
65534;BME280;53640;55.838;37.184;2022-07-29T04:50:23;99285.28;;;15.55;56.57
65534;BME280;53640;55.838;37.184;2022-07-29T04:52:49;99294.50;;;15.71;56.36
65534;BME280;53640;55.838;37.184;2022-07-29T04:55:16;99292.09;;;15.75;56.28
65534;BME280;53640;55.838;37.184;2022-07-29T04:57:42;99196.47;;;15.26;56.08
65534;BME280;53640;55.838;37.184;2022-07-29T05:00:09;99303.81;;;15.97;55.80
65534;BME280;53640;55.838;37.184;2022-07-29T05:02:35;99248.19;;;15.76;56.01
65534;BME280;53640;55.838;37.184;2022-07-29T05:05:02;99230.09;;;15.70;55.56
65534;BME280;53640;55.838;37.184;2022-07-29T05:07:29;99181.41;;;15.40;55.16
65534;BME280;53640;55.838;37.184;2022-07-29T05:09:56;99168.38;;;15.47;55.28
65534;BME280;53640;55.838;37.184;2022-07-29T05:12:23;99191.88;;;15.70;54.52
65534;BME280;53640;55.838;37.184;2022-07-29T05:14:50;99291.44;;;16.33;54.67
65534;BME280;53640;55.838;37.184;2022-07-29T05:17:16;99296.44;;;16.42;54.35
65534;BME280;53640;55.838;37.184;2022-07-29T05:19:43;99255.28;;;16.26;53.88
65534;BME280;53640;55.838;37.184;2022-07-29T05:22:09;99291.06;;;16.52;53.93
65534;BME280;53640;55.838;37.184;2022-07-29T05:24:35;99298.00;;;16.65;54.05
65534;BME280;53640;55.838;37.184;2022-07-29T05:27:02;99284.00;;;16.56;53.79
65534;BME280;53640;55.838;37.184;2022-07-29T05:29:28;99290.44;;;16.72;53.64
65534;BME280;53640;55.838;37.184;2022-07-29T05:31:54;99270.13;;;16.63;53.58
65534;BME280;53640;55.838;37.184;2022-07-29T05:34:20;99262.47;;;16.65;53.31
65534;BME280;53640;55.838;37.184;2022-07-29T05:36:49;99306.75;;;16.94;52.67
65534;BME280;53640;55.838;37.184;2022-07-29T05:39:15;99264.81;;;16.83;52.90
65534;BME280;53640;55.838;37.184;2022-07-29T05:41:42;99284.91;;;16.99;52.31
65534;BME280;53640;55.838;37.184;2022-07-29T05:44:08;99206.41;;;16.57;52.12
65534;BME280;53640;55.838;37.184;2022-07-29T05:46:34;99228.16;;;16.79;50.58
65534;BME280;53640;55.838;37.184;2022-07-29T05:49:00;99284.81;;;17.21;50.86
65534;BME280;53640;55.838;37.184;2022-07-29T05:51:28;99287.34;;;17.33;50.08
65534;BME280;53640;55.838;37.184;2022-07-29T05:53:55;99238.59;;;17.19;50.09
65534;BME280;53640;55.838;37.184;2022-07-29T05:56:22;99241.41;;;17.35;50.16
65534;BME280;53640;55.838;37.184;2022-07-29T05:58:48;99239.78;;;17.44;49.97
65534;BME280;53640;55.838;37.184;2022-07-29T06:01:14;99269.50;;;17.77;49.28
65534;BME280;53640;55.838;37.184;2022-07-29T06:03:42;99272.84;;;17.90;48.72
65534;BME280;53640;55.838;37.184;2022-07-29T06:06:09;99274.53;;;18.01;48.37
65534;BME280;53640;55.838;37.184;2022-07-29T06:08:36;99246.88;;;17.97;48.53
65534;BME280;53640;55.838;37.184;2022-07-29T06:11:03;99282.31;;;18.30;48.36
65534;BME280;53640;55.838;37.184;2022-07-29T06:13:30;99240.34;;;18.14;47.43
65534;BME280;53640;55.838;37.184;2022-07-29T06:15:57;99228.56;;;18.18;47.18
65534;BME280;53640;55.838;37.184;2022-07-29T06:18:24;99229.69;;;18.27;46.64
65534;BME280;53640;55.838;37.184;2022-07-29T06:21:54;99193.22;;;18.27;45.82
65534;BME280;53640;55.838;37.184;2022-07-29T06:24:23;99200.09;;;18.45;44.95
65534;BME280;53640;55.838;37.184;2022-07-29T06:26:53;99183.66;;;18.50;44.85
65534;BME280;53640;55.838;37.184;2022-07-29T06:29:19;99188.56;;;18.58;42.38
65534;BME280;53640;55.838;37.184;2022-07-29T06:31:48;99220.13;;;18.86;41.92
65534;BME280;53640;55.838;37.184;2022-07-29T06:34:15;99223.41;;;19.04;42.19
65534;BME280;53640;55.838;37.184;2022-07-29T06:36:43;99244.19;;;19.25;40.93
65534;BME280;53640;55.838;37.184;2022-07-29T06:39:09;99277.06;;;19.56;40.97
65534;BME280;53640;55.838;37.184;2022-07-29T06:41:36;99288.84;;;19.71;40.62
65534;BME280;53640;55.838;37.184;2022-07-29T06:44:09;99288.56;;;19.73;40.76
65534;BME280;53640;55.838;37.184;2022-07-29T06:46:35;99234.53;;;19.53;40.52
65534;BME280;53640;55.838;37.184;2022-07-29T06:49:02;99279.22;;;19.74;40.66
65534;BME280;53640;55.838;37.184;2022-07-29T06:51:28;99266.63;;;19.68;40.43
65534;BME280;53640;55.838;37.184;2022-07-29T06:53:55;99252.09;;;19.52;39.92
65534;BME280;53640;55.838;37.184;2022-07-29T06:56:23;99264.16;;;19.61;39.79
65534;BME280;53640;55.838;37.184;2022-07-29T06:58:49;99262.22;;;19.72;39.15
65534;BME280;53640;55.838;37.184;2022-07-29T07:01:16;99278.38;;;19.84;39.86
65534;BME280;53640;55.838;37.184;2022-07-29T07:03:42;99273.13;;;19.87;39.40
65534;BME280;53640;55.838;37.184;2022-07-29T07:06:09;99271.16;;;19.93;39.27
65534;BME280;53640;55.838;37.184;2022-07-29T07:08:35;99287.09;;;20.01;39.31
65534;BME280;53640;55.838;37.184;2022-07-29T07:11:01;99267.00;;;20.01;39.99
65534;BME280;53640;55.838;37.184;2022-07-29T07:13:27;99296.34;;;20.21;39.92
65534;BME280;53640;55.838;37.184;2022-07-29T07:15:57;99286.44;;;20.25;38.77
65534;BME280;53640;55.838;37.184;2022-07-29T07:18:23;99257.06;;;20.20;39.08
65534;BME280;53640;55.838;37.184;2022-07-29T07:20:49;99282.13;;;20.53;39.14
65534;BME280;53640;55.838;37.184;2022-07-29T07:23:16;99276.56;;;20.63;38.74
65534;BME280;53640;55.838;37.184;2022-07-29T07:25:42;99254.59;;;20.58;37.83
65534;BME280;53640;55.838;37.184;2022-07-29T07:28:08;99264.06;;;20.76;37.57
65534;BME280;53640;55.838;37.184;2022-07-29T07:30:35;99243.69;;;20.82;37.50
65534;BME280;53640;55.838;37.184;2022-07-29T07:33:01;99239.41;;;21.00;37.69
65534;BME280;53640;55.838;37.184;2022-07-29T07:35:28;99254.56;;;21.26;37.23
65534;BME280;53640;55.838;37.184;2022-07-29T07:37:55;99201.44;;;20.97;37.05
65534;BME280;53640;55.838;37.184;2022-07-29T07:40:21;99293.06;;;21.55;37.00
65534;BME280;53640;55.838;37.184;2022-07-29T07:42:52;99242.06;;;21.34;36.87
65534;BME280;53640;55.838;37.184;2022-07-29T07:45:18;99197.75;;;21.06;36.95
65534;BME280;53640;55.838;37.184;2022-07-29T07:47:45;99251.31;;;21.43;36.60
65534;BME280;53640;55.838;37.184;2022-07-29T07:50:13;99293.19;;;21.69;36.79
65534;BME280;53640;55.838;37.184;2022-07-29T07:52:50;99295.06;;;21.74;36.39
65534;BME280;53640;55.838;37.184;2022-07-29T07:55:18;99246.25;;;21.55;36.66
65534;BME280;53640;55.838;37.184;2022-07-29T07:57:45;99295.81;;;22.03;36.31
65534;BME280;53640;55.838;37.184;2022-07-29T08:00:13;99269.56;;;21.87;35.73
65534;BME280;53640;55.838;37.184;2022-07-29T08:02:40;99289.78;;;22.01;35.91
65534;BME280;53640;55.838;37.184;2022-07-29T08:05:06;99307.47;;;22.19;34.90
65534;BME280;53640;55.838;37.184;2022-07-29T08:07:34;99218.59;;;21.84;34.03
65534;BME280;53640;55.838;37.184;2022-07-29T08:10:00;99245.56;;;22.11;33.47
65534;BME280;53640;55.838;37.184;2022-07-29T08:12:26;99238.41;;;22.29;32.53
65534;BME280;53640;55.838;37.184;2022-07-29T08:14:53;99258.72;;;22.52;32.70
65534;BME280;53640;55.838;37.184;2022-07-29T08:17:20;99227.50;;;22.38;32.66
65534;BME280;53640;55.838;37.184;2022-07-29T08:19:46;99246.44;;;22.45;32.95
65534;BME280;53640;55.838;37.184;2022-07-29T08:22:14;99258.13;;;22.55;32.10
65534;BME280;53640;55.838;37.184;2022-07-29T08:24:40;99295.88;;;22.79;32.67
65534;BME280;53640;55.838;37.184;2022-07-29T08:27:10;99293.53;;;22.67;32.39
65534;BME280;53640;55.838;37.184;2022-07-29T08:29:37;99263.91;;;22.40;32.82
65534;BME280;53640;55.838;37.184;2022-07-29T08:32:04;99299.28;;;22.71;32.79
65534;BME280;53640;55.838;37.184;2022-07-29T08:34:33;99290.41;;;22.74;32.39
65534;BME280;53640;55.838;37.184;2022-07-29T08:37:00;99273.41;;;22.86;32.28
65534;BME280;53640;55.838;37.184;2022-07-29T08:39:26;99284.53;;;23.13;31.84
65534;BME280;53640;55.838;37.184;2022-07-29T08:41:52;99296.28;;;23.38;31.76
65534;BME280;53640;55.838;37.184;2022-07-29T08:44:19;99262.41;;;23.60;31.35
65534;BME280;53640;55.838;37.184;2022-07-29T08:46:48;99283.59;;;24.06;30.59
65534;BME280;53640;55.838;37.184;2022-07-29T08:49:16;99277.94;;;24.24;29.98
65534;BME280;53640;55.838;37.184;2022-07-29T08:51:43;99280.78;;;24.33;29.84
65534;BME280;53640;55.838;37.184;2022-07-29T08:54:11;99255.00;;;24.24;29.99
65534;BME280;53640;55.838;37.184;2022-07-29T08:56:38;99292.75;;;24.42;29.28
65534;BME280;53640;55.838;37.184;2022-07-29T08:59:06;99264.00;;;24.52;29.63
65534;BME280;53640;55.838;37.184;2022-07-29T09:01:37;99279.25;;;24.86;29.33
65534;BME280;53640;55.838;37.184;2022-07-29T09:04:10;99259.97;;;24.94;27.97
65534;BME280;53640;55.838;37.184;2022-07-29T09:06:42;99299.44;;;25.31;27.93
65534;BME280;53640;55.838;37.184;2022-07-29T09:09:08;99267.69;;;25.37;27.55
65534;BME280;53640;55.838;37.184;2022-07-29T09:11:36;99286.06;;;25.64;26.83
65534;BME280;53640;55.838;37.184;2022-07-29T09:14:02;99247.59;;;25.23;26.49
65534;BME280;53640;55.838;37.184;2022-07-29T09:17:04;99279.31;;;25.39;26.25
65534;BME280;53640;55.838;37.184;2022-07-29T09:19:33;99262.06;;;25.51;25.97
65534;BME280;53640;55.838;37.184;2022-07-29T09:22:06;99244.09;;;25.40;26.60
65534;BME280;53640;55.838;37.184;2022-07-29T09:24:39;99298.09;;;25.51;26.67
65534;BME280;53640;55.838;37.184;2022-07-29T09:27:20;99298.41;;;25.49;26.21
65534;BME280;53640;55.838;37.184;2022-07-29T09:29:55;99286.97;;;25.82;25.99
65534;BME280;53640;55.838;37.184;2022-07-29T09:32:21;99231.69;;;25.94;25.41
65534;BME280;53640;55.838;37.184;2022-07-29T09:34:48;99246.47;;;26.38;25.18
65534;BME280;53640;55.838;37.184;2022-07-29T09:37:27;99258.56;;;26.60;25.45
65534;BME280;53640;55.838;37.184;2022-07-29T09:39:54;99230.81;;;26.34;25.20
65534;BME280;53640;55.838;37.184;2022-07-29T09:42:28;99268.13;;;26.19;26.19
65534;BME280;53640;55.838;37.184;2022-07-29T09:44:55;99283.31;;;26.21;25.90
65534;BME280;53640;55.838;37.184;2022-07-29T09:47:22;99275.84;;;26.39;25.67
65534;BME280;53640;55.838;37.184;2022-07-29T09:49:58;99306.22;;;26.97;25.07
65534;BME280;53640;55.838;37.184;2022-07-29T09:52:26;99293.91;;;27.41;24.89
65534;BME280;53640;55.838;37.184;2022-07-29T09:54:53;99284.44;;;27.72;24.52
65534;BME280;53640;55.838;37.184;2022-07-29T09:57:29;99271.47;;;28.14;24.36
65534;BME280;53640;55.838;37.184;2022-07-29T10:00:02;99284.34;;;28.48;23.54
65534;BME280;53640;55.838;37.184;2022-07-29T10:02:40;99272.19;;;28.02;23.07
65534;BME280;53640;55.838;37.184;2022-07-29T10:07:53;99297.16;;;27.81;23.06
65534;BME280;53640;55.838;37.184;2022-07-29T10:12:50;99299.31;;;28.35;22.70
65534;BME280;53640;55.838;37.184;2022-07-29T10:15:17;99297.84;;;27.78;23.45
65534;BME280;53640;55.838;37.184;2022-07-29T10:17:44;99284.28;;;27.21;23.95
65534;BME280;53640;55.838;37.184;2022-07-29T10:20:11;99260.34;;;26.47;24.15
65534;BME280;53640;55.838;37.184;2022-07-29T10:22:38;99256.88;;;26.24;24.87
65534;BME280;53640;55.838;37.184;2022-07-29T10:25:05;99277.81;;;26.65;24.79
65534;BME280;53640;55.838;37.184;2022-07-29T10:27:32;99237.09;;;27.04;24.42
65534;BME280;53640;55.838;37.184;2022-07-29T10:29:58;99249.78;;;27.22;24.00
65534;BME280;53640;55.838;37.184;2022-07-29T10:41:00;99271.44;;;29.31;22.14
65534;BME280;53640;55.838;37.184;2022-07-29T10:43:51;99289.06;;;29.68;21.67
65534;BME280;53640;55.838;37.184;2022-07-29T10:46:17;99280.41;;;29.98;20.81
65534;BME280;53640;55.838;37.184;2022-07-29T10:52:07;99281.00;;;30.68;20.10
65534;BME280;53640;55.838;37.184;2022-07-29T10:54:39;99280.19;;;30.15;20.52
65534;BME280;53640;55.838;37.184;2022-07-29T10:57:30;99268.78;;;29.35;21.03
65534;BME280;53640;55.838;37.184;2022-07-29T11:02:42;99243.78;;;27.88;22.47
65534;BME280;53640;55.838;37.184;2022-07-29T11:05:17;99297.63;;;27.54;23.48
65534;BME280;53640;55.838;37.184;2022-07-29T11:10:38;99268.00;;;26.59;24.88
65534;BME280;53640;55.838;37.184;2022-07-29T11:13:05;99260.97;;;26.70;24.59
65534;BME280;53640;55.838;37.184;2022-07-29T11:15:54;99300.69;;;26.62;24.85
65534;BME280;53640;55.838;37.184;2022-07-29T11:18:21;99261.75;;;26.10;25.33
65534;BME280;53640;55.838;37.184;2022-07-29T11:20:49;99287.50;;;25.84;25.62
65534;BME280;53640;55.838;37.184;2022-07-29T11:23:30;99248.56;;;25.27;25.79
65534;BME280;53640;55.838;37.184;2022-07-29T11:39:37;99268.34;;;26.66;25.57
65534;BME280;53640;55.838;37.184;2022-07-29T11:45:06;99291.72;;;26.91;25.40
65534;BME280;53640;55.838;37.184;2022-07-29T11:47:35;99271.78;;;26.54;25.62
65534;BME280;53640;55.838;37.184;2022-07-29T11:50:07;99263.22;;;26.25;25.05
65534;BME280;53640;55.838;37.184;2022-07-29T11:52:38;99285.50;;;26.68;24.89
65534;BME280;53640;55.838;37.184;2022-07-29T11:55:11;99264.41;;;27.02;24.37
65534;BME280;53640;55.838;37.184;2022-07-29T11:57:49;99225.22;;;26.68;24.57
65534;BME280;53640;55.838;37.184;2022-07-29T12:00:32;99285.81;;;26.75;24.48
65534;BME280;53640;55.838;37.184;2022-07-29T12:03:01;99275.66;;;26.27;25.00
65534;BME280;53640;55.838;37.184;2022-07-29T12:05:46;99280.53;;;26.04;25.45
65534;BME280;53640;55.838;37.184;2022-07-29T12:08:14;99283.13;;;26.18;25.46
65534;BME280;53640;55.838;37.184;2022-07-29T12:10:41;99246.38;;;25.95;25.26
65534;BME280;53640;55.838;37.184;2022-07-29T12:13:09;99254.22;;;26.02;25.61
65534;BME280;53640;55.838;37.184;2022-07-29T12:15:36;99259.69;;;26.41;24.99
65534;BME280;53640;55.838;37.184;2022-07-29T12:18:14;99243.81;;;26.59;25.14
65534;BME280;53640;55.838;37.184;2022-07-29T12:20:41;99248.56;;;26.59;25.26
65534;BME280;53640;55.838;37.184;2022-07-29T12:23:09;99237.13;;;26.52;24.74
65534;BME280;53640;55.838;37.184;2022-07-29T12:25:38;99270.84;;;27.40;24.44
65534;BME280;53640;55.838;37.184;2022-07-29T12:28:14;99248.06;;;28.15;23.44
65534;BME280;53640;55.838;37.184;2022-07-29T12:30:47;99223.72;;;28.99;22.68
65534;BME280;53640;55.838;37.184;2022-07-29T12:33:27;99260.44;;;30.08;21.24
65534;BME280;53640;55.838;37.184;2022-07-29T12:35:56;99240.56;;;30.50;20.14
65534;BME280;53640;55.838;37.184;2022-07-29T12:38:24;99257.19;;;31.31;20.16
65534;BME280;53640;55.838;37.184;2022-07-29T12:40:52;99238.56;;;31.86;19.80
65534;BME280;53640;55.838;37.184;2022-07-29T12:43:20;99249.34;;;32.38;18.44
65534;BME280;53640;55.838;37.184;2022-07-29T12:45:54;99214.84;;;32.34;18.64
65534;BME280;53640;55.838;37.184;2022-07-29T12:48:37;99248.19;;;32.78;17.17
65534;BME280;53640;55.838;37.184;2022-07-29T12:51:05;99245.16;;;32.29;17.66
65534;BME280;53640;55.838;37.184;2022-07-29T12:53:33;99257.72;;;31.52;18.18
65534;BME280;53640;55.838;37.184;2022-07-29T12:55:59;99257.63;;;31.17;19.33
65534;BME280;53640;55.838;37.184;2022-07-29T12:58:41;99226.53;;;30.90;19.13
65534;BME280;53640;55.838;37.184;2022-07-29T13:01:17;99266.38;;;31.15;19.65
65534;BME280;53640;55.838;37.184;2022-07-29T13:03:51;99223.44;;;31.08;19.33
65534;BME280;53640;55.838;37.184;2022-07-29T13:06:39;99237.69;;;30.74;19.40
65534;BME280;53640;55.838;37.184;2022-07-29T13:09:14;99255.03;;;30.27;20.20
65534;BME280;53640;55.838;37.184;2022-07-29T13:11:49;99244.81;;;30.19;20.31
65534;BME280;53640;55.838;37.184;2022-07-29T13:14:41;99253.00;;;30.00;20.83
65534;BME280;53640;55.838;37.184;2022-07-29T13:19:41;99267.97;;;30.32;20.78
65534;BME280;53640;55.838;37.184;2022-07-29T13:22:12;99214.41;;;29.77;20.88
65534;BME280;53640;55.838;37.184;2022-07-29T13:24:59;99236.13;;;29.35;21.75
65534;BME280;53640;55.838;37.184;2022-07-29T13:27:32;99231.34;;;28.90;22.21
65534;BME280;53640;55.838;37.184;2022-07-29T13:29:59;99223.41;;;28.47;22.72
65534;BME280;53640;55.838;37.184;2022-07-29T13:32:28;99255.03;;;28.42;22.91
65534;BME280;53640;55.838;37.184;2022-07-29T13:34:56;99208.53;;;27.71;23.08
65534;BME280;53640;55.838;37.184;2022-07-29T13:37:22;99245.69;;;27.67;23.33
65534;BME280;53640;55.838;37.184;2022-07-29T13:39:49;99213.72;;;27.05;23.33
65534;BME280;53640;55.838;37.184;2022-07-29T13:42:15;99255.41;;;26.96;23.89
65534;BME280;53640;55.838;37.184;2022-07-29T13:44:41;99234.06;;;26.44;24.52
65534;BME280;53640;55.838;37.184;2022-07-29T13:47:08;99241.22;;;26.19;24.55
65534;BME280;53640;55.838;37.184;2022-07-29T13:49:34;99222.56;;;25.94;25.10
65534;BME280;53640;55.838;37.184;2022-07-29T13:52:01;99252.44;;;25.88;25.22
65534;BME280;53640;55.838;37.184;2022-07-29T13:54:27;99223.09;;;25.47;25.55